createdAt,value
2017-12-30T00:02:20.207Z,14.23
2017-12-30T00:04:47.799Z,13.85
2017-12-30T00:07:15.386Z,13.48
2017-12-30T00:09:42.970Z,10.88
2017-12-30T00:12:11.331Z,9.10
2017-12-30T00:14:38.933Z,10.73
2017-12-30T00:17:06.510Z,13.48
2017-12-30T00:19:34.090Z,10.40
2017-12-30T00:22:01.684Z,10.75
2017-12-30T00:24:30.031Z,13.82
2017-12-30T00:26:57.614Z,14.07
2017-12-30T00:29:30.571Z,10.40
2017-12-30T00:31:58.176Z,10.07
2017-12-30T00:34:25.767Z,12.35
2017-12-30T00:36:53.359Z,11.63
2017-12-30T00:39:20.946Z,10.05
2017-12-30T00:41:49.326Z,13.43
2017-12-30T00:44:17.696Z,11.93
2017-12-30T00:46:46.122Z,12.98
2017-12-30T00:49:13.707Z,11.80
2017-12-30T00:51:41.298Z,14.65
2017-12-30T00:54:09.657Z,12.60
2017-12-30T00:56:37.241Z,14.05
2017-12-30T00:59:04.898Z,9.23
2017-12-30T01:01:33.259Z,11.27
2017-12-30T01:04:01.678Z,15.25
2017-12-30T01:06:29.266Z,15.45
2017-12-30T01:08:56.858Z,10.70
2017-12-30T01:11:24.439Z,15.00
2017-12-30T01:13:52.785Z,6.60
2017-12-30T01:16:20.367Z,8.63
2017-12-30T01:18:48.726Z,8.98
2017-12-30T01:21:16.317Z,10.57
2017-12-30T01:23:43.907Z,10.18
2017-12-30T01:26:11.517Z,10.93
2017-12-30T01:28:39.867Z,6.53
2017-12-30T01:31:07.450Z,8.93
2017-12-30T01:33:35.810Z,10.77
2017-12-30T01:36:03.448Z,15.57
2017-12-30T01:38:31.025Z,12.90
2017-12-30T01:40:58.670Z,9.82
2017-12-30T01:43:26.262Z,11.90
2017-12-30T01:45:53.883Z,11.32
2017-12-30T01:48:21.475Z,11.40
2017-12-30T01:50:49.066Z,10.07
2017-12-30T01:53:16.671Z,11.45
2017-12-30T01:55:44.318Z,11.40
2017-12-30T01:58:11.907Z,15.23
2017-12-30T02:00:39.504Z,12.55
2017-12-30T02:03:07.088Z,9.90
2017-12-30T02:05:34.682Z,13.02
2017-12-30T02:08:02.298Z,13.45
2017-12-30T02:10:29.902Z,15.15
2017-12-30T02:12:57.497Z,16.25
2017-12-30T02:15:25.099Z,11.88
2017-12-30T02:17:52.695Z,13.60
2017-12-30T02:20:20.298Z,14.68
2017-12-30T02:22:47.886Z,10.57
2017-12-30T02:25:15.479Z,11.52
2017-12-30T02:27:43.854Z,7.55
2017-12-30T02:30:11.464Z,17.20
2017-12-30T02:32:39.094Z,11.12
2017-12-30T02:35:06.690Z,11.73
2017-12-30T02:37:34.275Z,10.00
2017-12-30T02:40:01.912Z,12.75
2017-12-30T02:42:29.502Z,12.75
2017-12-30T02:44:57.090Z,10.40
2017-12-30T02:47:25.451Z,11.57
2017-12-30T02:49:53.812Z,10.10
2017-12-30T02:52:21.414Z,10.13
2017-12-30T02:54:49.016Z,7.78
2017-12-30T02:57:16.602Z,18.10
2017-12-30T02:59:44.962Z,12.68
2017-12-30T03:02:12.556Z,8.48
2017-12-30T03:04:40.918Z,8.23
2017-12-30T03:07:08.507Z,11.75
2017-12-30T03:09:36.092Z,13.90
2017-12-30T03:12:03.688Z,16.73
2017-12-30T03:14:31.276Z,14.15
2017-12-30T03:16:58.870Z,7.20
2017-12-30T03:19:26.455Z,14.38
2017-12-30T03:21:54.046Z,14.30
2017-12-30T03:24:22.406Z,12.82
2017-12-30T03:26:49.993Z,8.13
2017-12-30T03:29:17.580Z,7.28
2017-12-30T03:31:45.163Z,7.28
2017-12-30T03:34:12.760Z,11.45
2017-12-30T03:36:41.131Z,9.63
2017-12-30T03:39:09.490Z,11.98
2017-12-30T03:41:37.099Z,13.70
2017-12-30T03:44:04.698Z,9.10
2017-12-30T03:46:32.318Z,10.20
2017-12-30T03:48:59.950Z,13.07
2017-12-30T03:51:28.314Z,10.95
2017-12-30T03:53:55.910Z,14.20
2017-12-30T03:56:23.526Z,13.57
2017-12-30T03:58:51.130Z,13.18
2017-12-30T04:01:18.723Z,14.55
2017-12-30T04:03:46.311Z,11.82
2017-12-30T04:06:13.926Z,13.20
2017-12-30T04:08:41.526Z,10.38
2017-12-30T04:11:09.126Z,9.90
2017-12-30T04:13:36.704Z,8.35
2017-12-30T04:16:04.286Z,11.68
2017-12-30T04:18:31.866Z,9.48
2017-12-30T04:20:59.459Z,13.27
2017-12-30T04:23:27.050Z,12.10
2017-12-30T04:25:54.642Z,13.27
2017-12-30T04:28:22.230Z,9.60
2017-12-30T04:30:50.630Z,9.43
2017-12-30T04:33:18.226Z,15.88
2017-12-30T04:35:47.946Z,14.68
2017-12-30T04:38:15.534Z,10.13
2017-12-30T04:40:43.894Z,7.37
2017-12-30T04:43:11.498Z,10.00
2017-12-30T04:45:39.082Z,11.00
2017-12-30T04:48:06.683Z,7.78
2017-12-30T04:50:34.274Z,14.02
2017-12-30T04:53:01.854Z,7.47
2017-12-30T04:55:29.467Z,5.07
2017-12-30T04:57:57.846Z,11.98
2017-12-30T05:00:25.459Z,7.28
2017-12-30T05:02:53.181Z,6.80
2017-12-30T05:05:20.771Z,8.98
2017-12-30T05:07:48.350Z,9.68
2017-12-30T05:10:15.939Z,8.50
2017-12-30T05:12:44.294Z,7.60
2017-12-30T05:15:11.923Z,7.82
2017-12-30T05:17:39.515Z,10.73
2017-12-30T05:20:07.109Z,4.85
2017-12-30T05:22:34.701Z,9.27
2017-12-30T05:25:02.303Z,6.43
2017-12-30T05:27:29.895Z,14.50
2017-12-30T05:29:57.486Z,9.25
2017-12-30T05:32:25.078Z,9.32
2017-12-30T05:34:52.710Z,6.43
2017-12-30T05:37:20.314Z,11.60
2017-12-30T05:39:48.666Z,7.03
2017-12-30T05:42:16.255Z,11.12
2017-12-30T05:44:44.606Z,8.60
2017-12-30T05:47:12.198Z,7.85
2017-12-30T05:49:40.542Z,9.27
2017-12-30T05:52:08.319Z,12.43
2017-12-30T05:54:35.918Z,14.13
2017-12-30T05:57:03.545Z,11.00
2017-12-30T05:59:31.930Z,11.38
2017-12-30T06:02:00.341Z,12.30
2017-12-30T06:04:27.930Z,18.42
2017-12-30T06:06:55.550Z,12.32
2017-12-30T06:09:23.136Z,12.73
2017-12-30T06:11:50.770Z,12.45
2017-12-30T06:14:18.368Z,11.23
2017-12-30T06:16:45.961Z,8.82
2017-12-30T06:19:14.314Z,10.77
2017-12-30T06:21:41.908Z,11.12
2017-12-30T06:24:09.550Z,11.43
2017-12-30T06:26:37.916Z,11.02
2017-12-30T06:29:05.522Z,9.75
2017-12-30T06:31:33.118Z,9.60
2017-12-30T06:34:00.710Z,7.70
2017-12-30T06:36:29.070Z,12.00
2017-12-30T06:38:56.669Z,11.35
2017-12-30T06:41:24.270Z,12.13
2017-12-30T06:43:51.875Z,9.02
2017-12-30T06:46:19.478Z,14.80
2017-12-30T06:48:47.074Z,15.75
2017-12-30T06:51:14.650Z,15.20
2017-12-30T06:53:43.345Z,12.45
2017-12-30T06:56:11.695Z,13.25
2017-12-30T06:58:39.293Z,12.52
2017-12-30T07:01:06.884Z,12.05
2017-12-30T07:03:34.534Z,14.45
2017-12-30T07:06:02.125Z,9.30
2017-12-30T07:08:29.730Z,12.48
2017-12-30T07:10:57.324Z,13.90
2017-12-30T07:13:24.919Z,12.55
2017-12-30T07:15:52.501Z,11.65
2017-12-30T07:18:20.854Z,17.67
2017-12-30T07:20:48.446Z,20.62
2017-12-30T07:23:16.073Z,11.60
2017-12-30T07:25:43.672Z,10.95
2017-12-30T07:28:11.261Z,17.50
2017-12-30T07:30:38.846Z,10.45
2017-12-30T07:33:06.467Z,15.40
2017-12-30T07:35:34.050Z,16.02
2017-12-30T07:38:01.633Z,17.08
2017-12-30T07:40:29.222Z,16.98
2017-12-30T07:43:20.949Z,14.63
2017-12-30T07:45:48.562Z,13.20
2017-12-30T07:48:16.163Z,13.95
2017-12-30T07:50:44.518Z,17.33
2017-12-30T07:53:12.110Z,15.50
2017-12-30T07:55:42.043Z,14.18
2017-12-30T07:58:09.661Z,14.63
2017-12-30T08:00:39.150Z,14.38
2017-12-30T08:03:06.754Z,14.75
2017-12-30T08:05:34.339Z,12.35
2017-12-30T08:08:01.939Z,14.85
2017-12-30T08:10:29.518Z,12.20
2017-12-30T08:12:57.894Z,13.65
2017-12-30T08:15:26.246Z,12.02
2017-12-30T08:17:54.496Z,14.90
2017-12-30T08:20:22.892Z,15.57
2017-12-30T08:22:50.481Z,19.80
2017-12-30T08:25:18.839Z,14.23
2017-12-30T08:27:46.447Z,15.60
2017-12-30T08:30:14.040Z,14.70
2017-12-30T08:32:41.765Z,13.20
2017-12-30T08:35:09.446Z,12.85
2017-12-30T08:37:37.034Z,11.90
2017-12-30T08:40:04.626Z,12.48
2017-12-30T08:42:32.210Z,12.65
2017-12-30T08:44:59.804Z,10.88
2017-12-30T08:47:27.451Z,15.65
2017-12-30T08:49:55.045Z,15.35
2017-12-30T08:52:22.632Z,11.45
2017-12-30T08:54:50.991Z,15.43
2017-12-30T08:57:18.578Z,18.85
2017-12-30T08:59:46.942Z,12.80
2017-12-30T09:02:14.529Z,13.95
2017-12-30T09:04:42.900Z,13.30
2017-12-30T09:07:11.275Z,28.87
2017-12-30T09:09:39.634Z,12.75
2017-12-30T09:12:07.708Z,16.62
2017-12-30T09:14:35.330Z,17.73
2017-12-30T09:17:02.915Z,12.18
2017-12-30T09:19:30.507Z,9.90
2017-12-30T09:21:58.104Z,15.85
2017-12-30T09:24:25.698Z,14.95
2017-12-30T09:26:53.315Z,13.05
2017-12-30T09:29:20.962Z,20.10
2017-12-30T09:31:49.317Z,19.92
2017-12-30T09:34:16.907Z,16.87
2017-12-30T09:36:45.261Z,15.48
2017-12-30T09:39:12.846Z,15.13
2017-12-30T09:41:41.205Z,15.90
2017-12-30T09:44:09.350Z,12.98
2017-12-30T09:46:36.998Z,18.05
2017-12-30T09:49:04.594Z,14.45
2017-12-30T09:51:32.183Z,14.65
2017-12-30T09:53:59.777Z,14.02
2017-12-30T09:56:27.877Z,15.35
2017-12-30T09:58:56.346Z,14.05
2017-12-30T10:01:24.703Z,11.63
2017-12-30T10:03:52.289Z,15.38
2017-12-30T10:06:20.646Z,12.00
2017-12-30T10:08:48.246Z,14.95
2017-12-30T10:11:15.830Z,12.25
2017-12-30T10:13:43.416Z,17.23
2017-12-30T10:16:11.062Z,14.27
2017-12-30T10:18:38.646Z,12.10
2017-12-30T10:21:06.245Z,12.57
2017-12-30T10:23:33.838Z,12.05
2017-12-30T10:26:01.418Z,11.38
2017-12-30T10:28:28.998Z,9.63
2017-12-30T10:30:56.583Z,10.32
2017-12-30T10:33:24.928Z,14.07
2017-12-30T10:35:52.507Z,16.67
2017-12-30T10:38:20.091Z,15.65
2017-12-30T10:40:47.674Z,10.73
2017-12-30T10:43:15.668Z,11.43
2017-12-30T10:45:45.383Z,12.63
2017-12-30T10:48:12.965Z,13.10
2017-12-30T10:50:40.594Z,15.85
2017-12-30T10:53:08.188Z,12.95
2017-12-30T10:55:36.542Z,15.05
2017-12-30T10:58:04.157Z,10.75
2017-12-30T11:00:37.411Z,12.90
2017-12-30T11:03:04.987Z,10.65
2017-12-30T11:05:33.372Z,12.25
2017-12-30T11:08:00.953Z,12.52
2017-12-30T11:10:28.550Z,14.23
2017-12-30T11:12:56.163Z,18.95
2017-12-30T11:15:23.746Z,11.70
2017-12-30T11:17:51.335Z,16.50
2017-12-30T11:20:18.919Z,11.43
2017-12-30T11:22:47.271Z,15.00
2017-12-30T11:25:14.858Z,13.43
2017-12-30T11:27:43.202Z,9.43
2017-12-30T11:30:10.782Z,15.75
2017-12-30T11:32:38.362Z,12.88
2017-12-30T11:35:06.006Z,13.65
2017-12-30T11:37:34.358Z,12.68
2017-12-30T11:40:01.942Z,15.85
2017-12-30T11:42:30.302Z,16.02
2017-12-30T11:44:57.895Z,13.73
2017-12-30T11:47:26.242Z,14.95
2017-12-30T11:49:53.818Z,13.45
2017-12-30T11:52:21.406Z,16.70
2017-12-30T11:54:48.990Z,15.13
2017-12-30T11:57:16.581Z,13.65
2017-12-30T11:59:44.178Z,15.35
2017-12-30T12:02:11.769Z,18.73
2017-12-30T12:04:39.396Z,16.65
2017-12-30T12:07:06.981Z,13.27
2017-12-30T12:09:34.627Z,15.75
2017-12-30T12:12:02.223Z,18.30
2017-12-30T12:14:29.841Z,16.02
2017-12-30T12:16:57.493Z,19.60
2017-12-30T12:19:25.074Z,18.33
2017-12-30T12:21:52.666Z,19.17
2017-12-30T12:24:20.284Z,15.50
2017-12-30T12:26:47.875Z,18.98
2017-12-30T12:29:15.502Z,14.90
2017-12-30T12:31:43.110Z,17.45
2017-12-30T12:34:10.694Z,15.00
2017-12-30T12:36:38.282Z,11.43
2017-12-30T12:39:06.658Z,17.25
2017-12-30T12:41:35.037Z,15.15
2017-12-30T12:44:03.393Z,17.98
2017-12-30T12:46:30.981Z,14.45
2017-12-30T12:48:59.325Z,15.85
2017-12-30T12:51:26.906Z,16.73
2017-12-30T12:53:54.490Z,14.95
2017-12-30T12:56:22.114Z,11.90
2017-12-30T12:58:49.698Z,16.40
2017-12-30T13:01:18.094Z,10.82
2017-12-30T13:03:45.683Z,21.98
2017-12-30T13:06:13.278Z,16.95
2017-12-30T13:08:40.897Z,13.45
2017-12-30T13:11:08.545Z,15.30
2017-12-30T13:13:36.125Z,15.18
2017-12-30T13:16:03.703Z,14.40
2017-12-30T13:18:31.285Z,11.75
2017-12-30T13:20:58.878Z,15.90
2017-12-30T13:23:26.466Z,17.40
2017-12-30T13:25:54.045Z,18.17
2017-12-30T13:28:21.626Z,12.40
2017-12-30T13:30:49.211Z,13.85
2017-12-30T13:33:16.791Z,17.70
2017-12-30T13:35:44.382Z,14.48
2017-12-30T13:38:11.958Z,15.00
2017-12-30T13:40:39.546Z,14.87
2017-12-30T13:43:07.157Z,11.10
2017-12-30T13:45:34.738Z,14.00
2017-12-30T13:48:02.319Z,15.63
2017-12-30T13:50:30.671Z,11.93
2017-12-30T13:52:59.046Z,12.60
2017-12-30T13:55:26.622Z,17.35
2017-12-30T13:57:54.251Z,14.25
2017-12-30T14:00:21.835Z,12.77
2017-12-30T14:02:49.428Z,15.43
2017-12-30T14:05:17.008Z,12.45
2017-12-30T14:07:44.585Z,17.83
2017-12-30T14:10:12.185Z,19.90
2017-12-30T14:12:40.542Z,16.45
2017-12-30T14:15:08.129Z,16.30
2017-12-30T14:20:53.955Z,19.80
2017-12-30T14:23:21.530Z,15.75
2017-12-30T14:25:49.153Z,24.37
2017-12-30T14:28:17.502Z,21.50
2017-12-30T14:30:45.082Z,18.73
2017-12-30T14:33:13.434Z,18.73
2017-12-30T14:35:41.014Z,22.35
2017-12-30T14:38:08.594Z,18.65
2017-12-30T14:40:36.213Z,17.33
2017-12-30T14:43:03.796Z,19.08
2017-12-30T14:45:32.314Z,14.75
2017-12-30T14:47:59.932Z,17.52
2017-12-30T14:50:27.530Z,18.65
2017-12-30T14:52:55.136Z,17.50
2017-12-30T14:55:22.718Z,16.37
2017-12-30T14:57:51.070Z,18.17
2017-12-30T15:00:18.675Z,22.50
2017-12-30T15:02:47.026Z,18.98
2017-12-30T15:05:14.619Z,13.77
2017-12-30T15:07:42.213Z,13.05
2017-12-30T15:10:09.802Z,16.77
2017-12-30T15:12:37.387Z,14.98
2017-12-30T15:15:05.739Z,13.30
2017-12-30T15:17:33.326Z,16.42
2017-12-30T15:20:00.923Z,16.90
2017-12-30T15:22:28.509Z,15.60
2017-12-30T15:24:57.910Z,15.55
2017-12-30T15:27:25.531Z,11.25
2017-12-30T15:29:53.887Z,10.30
2017-12-30T15:32:21.588Z,9.07
2017-12-30T15:34:50.274Z,9.52
2017-12-30T15:37:18.657Z,5.97
2017-12-30T15:39:47.006Z,8.52
2017-12-30T15:42:14.585Z,9.75
2017-12-30T15:44:42.162Z,4.93
2017-12-30T15:47:10.506Z,6.68
2017-12-30T15:49:38.099Z,7.75
2017-12-30T15:52:07.078Z,6.75
2017-12-30T15:54:35.429Z,7.10
2017-12-30T15:57:03.007Z,6.37
2017-12-30T15:59:30.592Z,4.00
2017-12-30T16:01:59.138Z,3.70
2017-12-30T16:04:26.710Z,4.62
2017-12-30T16:06:54.318Z,3.47
2017-12-30T16:09:21.942Z,2.92
2017-12-30T16:11:50.287Z,2.87
2017-12-30T16:14:19.322Z,3.05
2017-12-30T16:16:47.697Z,7.28
2017-12-30T16:19:16.050Z,3.67
2017-12-30T16:21:43.631Z,2.55
2017-12-30T16:24:11.989Z,4.80
2017-12-30T16:26:39.566Z,4.00
2017-12-30T16:29:07.916Z,2.85
2017-12-30T16:31:35.498Z,2.10
2017-12-30T16:34:03.850Z,2.85
2017-12-30T16:36:31.437Z,2.90
2017-12-30T16:38:59.794Z,2.40
2017-12-30T16:41:27.369Z,2.00
2017-12-30T16:43:54.955Z,2.58
2017-12-30T16:46:22.534Z,3.12
2017-12-30T16:48:50.111Z,2.95
2017-12-30T16:51:17.687Z,3.25
2017-12-30T16:53:45.262Z,2.30
2017-12-30T16:56:12.842Z,2.70
2017-12-30T16:58:41.184Z,3.45
2017-12-30T17:01:22.806Z,2.97
2017-12-30T17:03:51.150Z,3.40
2017-12-30T17:06:18.727Z,1.92
2017-12-30T17:08:46.306Z,2.45
2017-12-30T17:11:14.648Z,2.33
2017-12-30T17:13:42.234Z,2.05
2017-12-30T17:16:10.581Z,2.20
2017-12-30T17:18:38.225Z,2.72
2017-12-30T17:21:05.810Z,1.95
2017-12-30T17:23:33.398Z,2.90
2017-12-30T17:26:01.745Z,3.33
2017-12-30T17:28:29.330Z,3.12
2017-12-30T17:30:57.670Z,3.15
2017-12-30T17:33:25.250Z,2.75
2017-12-30T17:35:52.826Z,2.97
2017-12-30T17:38:21.182Z,4.40
2017-12-30T17:40:48.766Z,2.53
2017-12-30T17:43:16.352Z,3.75
2017-12-30T17:45:43.929Z,5.65
2017-12-30T17:48:11.506Z,5.35
2017-12-30T17:50:39.122Z,5.65
2017-12-30T17:53:06.698Z,7.37
2017-12-30T17:55:34.270Z,8.35
2017-12-30T17:58:01.846Z,8.13
2017-12-30T18:00:29.422Z,10.68
2017-12-30T18:02:57.806Z,6.28
2017-12-30T18:05:26.151Z,10.25
2017-12-30T18:07:53.728Z,9.15
2017-12-30T18:10:21.306Z,10.05
2017-12-30T18:12:49.657Z,15.38
2017-12-30T18:15:17.246Z,10.68
2017-12-30T18:17:45.589Z,12.77
2017-12-30T18:20:13.170Z,16.17
2017-12-30T18:22:41.522Z,17.40
2017-12-30T18:25:09.110Z,12.82
2017-12-30T18:27:37.476Z,13.95
2017-12-30T18:30:05.058Z,14.20
2017-12-30T18:32:33.410Z,12.60
2017-12-30T18:35:00.994Z,13.40
2017-12-30T18:37:29.362Z,17.40
2017-12-30T18:39:57.718Z,19.92
2017-12-30T18:42:25.319Z,14.55
2017-12-30T18:44:52.907Z,15.25
2017-12-30T18:47:20.495Z,15.00
2017-12-30T18:49:48.106Z,16.42
2017-12-30T18:52:15.689Z,15.43
2017-12-30T18:54:43.332Z,20.50
2017-12-30T18:57:10.931Z,17.40
2017-12-30T18:59:45.078Z,19.67
2017-12-30T19:02:12.666Z,14.73
2017-12-30T19:04:40.266Z,18.87
2017-12-30T19:07:07.852Z,16.58
2017-12-30T19:09:36.271Z,20.40
2017-12-30T19:12:03.906Z,24.87
2017-12-30T19:14:31.499Z,26.00
2017-12-30T19:16:59.143Z,19.77
2017-12-30T19:19:26.731Z,23.40
2017-12-30T19:21:54.310Z,17.48
2017-12-30T19:24:21.902Z,25.30
2017-12-30T19:26:49.526Z,20.95
2017-12-30T19:29:17.123Z,26.95
2017-12-30T19:31:44.701Z,20.40
2017-12-30T19:34:13.075Z,23.75
2017-12-30T19:36:41.427Z,25.98
2017-12-30T19:39:09.016Z,21.52
2017-12-30T19:41:37.367Z,15.85
2017-12-30T19:44:04.949Z,20.20
2017-12-30T19:46:33.290Z,18.15
2017-12-30T19:49:00.928Z,19.37
2017-12-30T19:51:28.562Z,21.62
2017-12-30T19:53:56.150Z,24.67
2017-12-30T19:56:23.749Z,20.58
2017-12-30T19:58:52.106Z,21.37
2017-12-30T20:01:19.686Z,24.65
2017-12-30T20:03:48.054Z,16.50
2017-12-30T20:06:15.640Z,20.83
2017-12-30T20:08:43.995Z,22.73
2017-12-30T20:11:11.582Z,21.30
2017-12-30T20:13:39.177Z,24.48
2017-12-30T20:16:06.758Z,32.20
2017-12-30T20:18:34.438Z,16.62
2017-12-30T20:21:02.022Z,25.85
2017-12-30T20:23:29.671Z,22.40
2017-12-30T20:25:58.014Z,23.73
2017-12-30T20:28:25.595Z,27.52
2017-12-30T20:30:53.177Z,24.02
2017-12-30T20:33:21.520Z,19.75
2017-12-30T20:35:49.109Z,21.27
2017-12-30T20:38:17.458Z,25.67
2017-12-30T20:40:45.040Z,20.98
2017-12-30T20:43:13.382Z,28.05
2017-12-30T20:45:40.969Z,26.30
2017-12-30T20:48:09.326Z,29.12
2017-12-30T20:50:36.923Z,24.87
2017-12-30T20:53:04.531Z,27.05
2017-12-30T20:55:32.131Z,27.05
2017-12-30T20:57:59.763Z,34.78
2017-12-30T21:00:27.346Z,25.75
2017-12-30T21:02:54.946Z,24.37
2017-12-30T21:05:22.526Z,28.48
2017-12-30T21:07:50.117Z,37.10
2017-12-30T21:10:17.711Z,29.45
2017-12-30T21:12:45.302Z,34.20
2017-12-30T21:15:13.663Z,23.48
2017-12-30T21:17:42.026Z,32.80
2017-12-30T21:20:09.606Z,33.22
2017-12-30T21:22:37.230Z,33.17
2017-12-30T21:25:04.884Z,40.70
2017-12-30T21:27:32.531Z,35.60
2017-12-30T21:30:00.264Z,33.20
2017-12-30T21:32:28.614Z,36.80
2017-12-30T21:34:56.199Z,30.45
2017-12-30T21:37:24.555Z,30.90
2017-12-30T21:39:52.138Z,30.20
2017-12-30T21:42:20.529Z,30.55
2017-12-30T21:44:48.878Z,31.55
2017-12-30T21:47:16.466Z,35.33
2017-12-30T21:49:44.858Z,31.23
2017-12-30T21:52:12.451Z,27.52
2017-12-30T21:54:40.033Z,36.55
2017-12-30T21:57:07.626Z,31.25
2017-12-30T21:59:35.217Z,32.80
2017-12-30T22:02:02.803Z,26.77
2017-12-30T22:04:30.391Z,29.35
2017-12-30T22:06:57.994Z,30.88
2017-12-30T22:09:25.576Z,22.55
2017-12-30T22:11:53.162Z,33.72
2017-12-30T22:14:21.510Z,28.00
2017-12-30T22:16:49.107Z,34.90
2017-12-30T22:19:18.197Z,35.53
2017-12-30T22:21:46.552Z,31.37
2017-12-30T22:24:14.153Z,33.92
2017-12-30T22:26:41.745Z,29.05
2017-12-30T22:29:09.340Z,27.77
2017-12-30T22:31:36.929Z,25.90
2017-12-30T22:34:04.522Z,39.97
2017-12-30T22:36:32.110Z,35.55
2017-12-30T22:38:59.718Z,28.65
2017-12-30T22:41:27.298Z,27.95
2017-12-30T22:43:54.882Z,28.05
2017-12-30T22:46:22.485Z,26.67
2017-12-30T22:48:50.078Z,25.55
2017-12-30T22:51:17.666Z,25.40
2017-12-30T22:53:45.255Z,31.98
2017-12-30T22:56:13.609Z,30.15
2017-12-30T22:58:41.196Z,27.13
2017-12-30T23:01:08.783Z,26.83
2017-12-30T23:03:36.477Z,32.75
2017-12-30T23:06:04.094Z,34.13
2017-12-30T23:08:31.689Z,33.25
2017-12-30T23:10:59.286Z,25.83
2017-12-30T23:13:27.634Z,35.08
2017-12-30T23:15:55.217Z,22.27
2017-12-30T23:18:23.579Z,29.27
2017-12-30T23:20:51.161Z,42.30
2017-12-30T23:23:19.515Z,30.98
2017-12-30T23:25:47.122Z,39.97
2017-12-30T23:28:14.717Z,36.05
2017-12-30T23:30:42.314Z,39.67
2017-12-30T23:33:10.667Z,34.95
2017-12-30T23:35:38.314Z,38.25
2017-12-30T23:38:05.899Z,33.03
2017-12-30T23:40:34.381Z,36.45
2017-12-30T23:43:01.975Z,36.72
2017-12-30T23:45:29.590Z,35.38
2017-12-30T23:47:57.186Z,39.78
2017-12-30T23:50:24.778Z,38.03
2017-12-30T23:52:52.361Z,45.42
2017-12-30T23:55:19.970Z,42.70
2017-12-30T23:57:47.570Z,36.30
